sensor_id;sensor_type;location;lat;lon;timestamp;pressure;altitude;pressure_sealevel;temperature;humidity
71384;BME280;61466;52.166;5.004;2023-01-25T00:00:36;103922.97;;;4.39;61.30
71384;BME280;61466;52.166;5.004;2023-01-25T00:03:02;103915.69;;;4.41;61.30
71384;BME280;61466;52.166;5.004;2023-01-25T00:05:27;103907.19;;;4.38;61.33
71384;BME280;61466;52.166;5.004;2023-01-25T00:07:52;103906.19;;;4.39;61.11
71384;BME280;61466;52.166;5.004;2023-01-25T00:10:18;103909.84;;;4.38;61.08
71384;BME280;61466;52.166;5.004;2023-01-25T00:12:44;103904.69;;;4.36;61.30
71384;BME280;61466;52.166;5.004;2023-01-25T00:15:09;103899.09;;;4.39;61.16
71384;BME280;61466;52.166;5.004;2023-01-25T00:17:35;103894.63;;;4.40;61.10
71384;BME280;61466;52.166;5.004;2023-01-25T00:20:00;103894.50;;;4.41;61.23
71384;BME280;61466;52.166;5.004;2023-01-25T00:22:25;103894.19;;;4.44;61.14
71384;BME280;61466;52.166;5.004;2023-01-25T00:24:51;103891.41;;;4.46;60.51
71384;BME280;61466;52.166;5.004;2023-01-25T00:27:16;103888.88;;;4.44;60.86
71384;BME280;61466;52.166;5.004;2023-01-25T00:29:41;103892.34;;;4.45;60.97
71384;BME280;61466;52.166;5.004;2023-01-25T00:32:28;103886.00;;;4.38;61.08
71384;BME280;61466;52.166;5.004;2023-01-25T00:34:56;103874.84;;;4.34;60.87
71384;BME280;61466;52.166;5.004;2023-01-25T00:39:53;103881.81;;;4.35;60.97
71384;BME280;61466;52.166;5.004;2023-01-25T00:42:19;103878.88;;;4.38;61.11
71384;BME280;61466;52.166;5.004;2023-01-25T00:44:46;103879.19;;;4.35;60.96
71384;BME280;61466;52.166;5.004;2023-01-25T00:47:11;103875.00;;;4.33;60.88
71384;BME280;61466;52.166;5.004;2023-01-25T00:49:38;103873.63;;;4.28;61.04
71384;BME280;61466;52.166;5.004;2023-01-25T00:52:05;103875.59;;;4.26;60.94
71384;BME280;61466;52.166;5.004;2023-01-25T00:54:31;103872.94;;;4.26;60.95
71384;BME280;61466;52.166;5.004;2023-01-25T00:56:56;103867.41;;;4.20;60.95
71384;BME280;61466;52.166;5.004;2023-01-25T00:59:22;103872.53;;;4.21;60.91
71384;BME280;61466;52.166;5.004;2023-01-25T01:01:48;103868.69;;;4.16;61.12
71384;BME280;61466;52.166;5.004;2023-01-25T01:04:14;103872.03;;;4.18;60.89
71384;BME280;61466;52.166;5.004;2023-01-25T01:06:40;103866.72;;;4.18;61.10
71384;BME280;61466;52.166;5.004;2023-01-25T01:09:10;103871.47;;;4.14;60.97
71384;BME280;61466;52.166;5.004;2023-01-25T01:11:35;103870.06;;;4.20;61.31
71384;BME280;61466;52.166;5.004;2023-01-25T01:14:01;103868.25;;;4.20;61.13
71384;BME280;61466;52.166;5.004;2023-01-25T01:16:26;103865.22;;;4.15;61.23
71384;BME280;61466;52.166;5.004;2023-01-25T01:18:51;103864.75;;;4.20;61.15
71384;BME280;61466;52.166;5.004;2023-01-25T01:21:17;103856.41;;;4.15;60.94
71384;BME280;61466;52.166;5.004;2023-01-25T01:23:42;103856.13;;;4.18;60.92
71384;BME280;61466;52.166;5.004;2023-01-25T01:26:11;103861.41;;;4.18;61.46
71384;BME280;61466;52.166;5.004;2023-01-25T01:28:37;103853.63;;;4.16;61.27
71384;BME280;61466;52.166;5.004;2023-01-25T01:31:09;103854.16;;;4.20;61.18
71384;BME280;61466;52.166;5.004;2023-01-25T01:33:34;103856.63;;;4.21;61.01
71384;BME280;61466;52.166;5.004;2023-01-25T01:36:14;103852.47;;;4.19;60.97
71384;BME280;61466;52.166;5.004;2023-01-25T01:38:40;103858.91;;;4.16;61.06
71384;BME280;61466;52.166;5.004;2023-01-25T01:41:06;103857.66;;;4.10;61.26
71384;BME280;61466;52.166;5.004;2023-01-25T01:43:32;103862.69;;;4.14;61.21
71384;BME280;61466;52.166;5.004;2023-01-25T01:46:03;103860.03;;;4.14;61.43
71384;BME280;61466;52.166;5.004;2023-01-25T01:51:19;103862.84;;;4.12;61.20
71384;BME280;61466;52.166;5.004;2023-01-25T01:53:49;103860.19;;;4.12;61.23
71384;BME280;61466;52.166;5.004;2023-01-25T01:56:22;103858.94;;;4.06;61.29
71384;BME280;61466;52.166;5.004;2023-01-25T01:58:50;103859.25;;;4.03;61.26
71384;BME280;61466;52.166;5.004;2023-01-25T02:01:17;103848.66;;;4.03;61.46
71384;BME280;61466;52.166;5.004;2023-01-25T02:03:44;103847.84;;;4.03;61.22
71384;BME280;61466;52.166;5.004;2023-01-25T02:06:14;103851.16;;;4.05;61.36
71384;BME280;61466;52.166;5.004;2023-01-25T02:08:42;103847.28;;;3.99;61.30
71384;BME280;61466;52.166;5.004;2023-01-25T02:11:09;103853.03;;;3.95;61.47
71384;BME280;61466;52.166;5.004;2023-01-25T02:13:36;103847.84;;;3.93;61.33
71384;BME280;61466;52.166;5.004;2023-01-25T02:16:02;103849.00;;;3.90;61.43
71384;BME280;61466;52.166;5.004;2023-01-25T02:18:28;103842.88;;;3.90;61.54
71384;BME280;61466;52.166;5.004;2023-01-25T02:20:56;103840.34;;;3.88;61.50
71384;BME280;61466;52.166;5.004;2023-01-25T02:26:08;103837.25;;;3.93;61.47
71384;BME280;61466;52.166;5.004;2023-01-25T02:28:55;103835.31;;;3.95;61.48
71384;BME280;61466;52.166;5.004;2023-01-25T02:31:23;103834.63;;;3.93;61.56
71384;BME280;61466;52.166;5.004;2023-01-25T02:33:48;103827.81;;;3.90;61.49
71384;BME280;61466;52.166;5.004;2023-01-25T02:36:18;103831.00;;;3.94;61.67
71384;BME280;61466;52.166;5.004;2023-01-25T02:38:58;103819.84;;;3.90;61.75
71384;BME280;61466;52.166;5.004;2023-01-25T02:41:42;103821.53;;;3.92;61.62
71384;BME280;61466;52.166;5.004;2023-01-25T02:44:14;103827.53;;;3.94;61.67
71384;BME280;61466;52.166;5.004;2023-01-25T02:46:42;103817.75;;;3.94;61.67
71384;BME280;61466;52.166;5.004;2023-01-25T02:49:10;103820.25;;;3.96;61.97
71384;BME280;61466;52.166;5.004;2023-01-25T02:51:40;103817.59;;;3.96;61.85
71384;BME280;61466;52.166;5.004;2023-01-25T02:54:07;103816.50;;;3.98;62.01
71384;BME280;61466;52.166;5.004;2023-01-25T02:56:33;103812.28;;;3.96;61.62
71384;BME280;61466;52.166;5.004;2023-01-25T02:58:58;103811.63;;;3.94;61.78
71384;BME280;61466;52.166;5.004;2023-01-25T03:01:31;103803.81;;;3.92;62.13
71384;BME280;61466;52.166;5.004;2023-01-25T03:03:56;103804.91;;;3.99;61.92
71384;BME280;61466;52.166;5.004;2023-01-25T03:06:21;103801.88;;;3.94;62.32
71384;BME280;61466;52.166;5.004;2023-01-25T03:08:47;103798.22;;;3.95;61.99
71384;BME280;61466;52.166;5.004;2023-01-25T03:11:12;103801.28;;;4.00;62.35
71384;BME280;61466;52.166;5.004;2023-01-25T03:13:37;103794.31;;;3.99;61.84
71384;BME280;61466;52.166;5.004;2023-01-25T03:16:09;103788.31;;;3.97;62.15
71384;BME280;61466;52.166;5.004;2023-01-25T03:18:35;103797.06;;;4.07;61.51
71384;BME280;61466;52.166;5.004;2023-01-25T03:21:10;103797.19;;;4.06;61.86
71384;BME280;61466;52.166;5.004;2023-01-25T03:23:36;103793.41;;;4.08;61.89
71384;BME280;61466;52.166;5.004;2023-01-25T03:26:06;103790.25;;;4.05;61.42
71384;BME280;61466;52.166;5.004;2023-01-25T03:28:31;103792.31;;;4.11;61.63
71384;BME280;61466;52.166;5.004;2023-01-25T03:30:56;103786.16;;;4.10;61.75
71384;BME280;61466;52.166;5.004;2023-01-25T03:33:22;103787.34;;;3.98;62.05
71384;BME280;61466;52.166;5.004;2023-01-25T03:35:54;103773.09;;;3.99;61.55
71384;BME280;61466;52.166;5.004;2023-01-25T03:38:19;103769.31;;;4.02;61.73
71384;BME280;61466;52.166;5.004;2023-01-25T03:40:45;103777.69;;;4.07;61.70
71384;BME280;61466;52.166;5.004;2023-01-25T03:43:11;103763.50;;;3.98;62.09
71384;BME280;61466;52.166;5.004;2023-01-25T03:45:37;103767.53;;;4.02;61.69
71384;BME280;61466;52.166;5.004;2023-01-25T03:48:02;103761.69;;;3.99;61.81
71384;BME280;61466;52.166;5.004;2023-01-25T03:50:27;103762.50;;;3.99;61.88
71384;BME280;61466;52.166;5.004;2023-01-25T03:52:53;103756.38;;;3.99;62.04
71384;BME280;61466;52.166;5.004;2023-01-25T03:55:25;103756.53;;;3.97;61.88
71384;BME280;61466;52.166;5.004;2023-01-25T03:57:51;103749.41;;;3.98;61.86
71384;BME280;61466;52.166;5.004;2023-01-25T04:00:17;103755.25;;;4.01;61.89
71384;BME280;61466;52.166;5.004;2023-01-25T04:02:42;103762.06;;;4.04;61.64
71384;BME280;61466;52.166;5.004;2023-01-25T04:05:08;103754.97;;;4.04;61.63
71384;BME280;61466;52.166;5.004;2023-01-25T04:07:33;103753.84;;;4.07;61.35
71384;BME280;61466;52.166;5.004;2023-01-25T04:09:58;103754.66;;;4.07;61.27
71384;BME280;61466;52.166;5.004;2023-01-25T04:12:24;103761.78;;;4.07;61.62
71384;BME280;61466;52.166;5.004;2023-01-25T04:14:49;103758.69;;;4.12;61.56
71384;BME280;61466;52.166;5.004;2023-01-25T04:17:14;103763.16;;;4.11;61.64
71384;BME280;61466;52.166;5.004;2023-01-25T04:19:40;103760.50;;;4.11;61.76
71384;BME280;61466;52.166;5.004;2023-01-25T04:22:05;103756.03;;;4.12;61.56
71384;BME280;61466;52.166;5.004;2023-01-25T04:24:31;103747.69;;;4.06;61.62
71384;BME280;61466;52.166;5.004;2023-01-25T04:26:56;103751.56;;;4.12;61.43
71384;BME280;61466;52.166;5.004;2023-01-25T04:29:21;103747.09;;;4.13;61.40
71384;BME280;61466;52.166;5.004;2023-01-25T04:31:46;103741.97;;;4.11;61.65
71384;BME280;61466;52.166;5.004;2023-01-25T04:34:12;103740.41;;;4.08;61.70
71384;BME280;61466;52.166;5.004;2023-01-25T04:36:37;103736.50;;;4.13;61.78
71384;BME280;61466;52.166;5.004;2023-01-25T04:39:02;103735.66;;;4.12;61.65
71384;BME280;61466;52.166;5.004;2023-01-25T04:41:28;103745.13;;;4.15;61.43
71384;BME280;61466;52.166;5.004;2023-01-25T04:43:53;103739.69;;;4.16;61.37
71384;BME280;61466;52.166;5.004;2023-01-25T04:46:19;103732.06;;;4.13;61.61
71384;BME280;61466;52.166;5.004;2023-01-25T04:48:44;103729.22;;;4.15;61.54
71384;BME280;61466;52.166;5.004;2023-01-25T04:51:10;103716.84;;;4.15;61.43
71384;BME280;61466;52.166;5.004;2023-01-25T04:53:35;103718.50;;;4.16;61.49
71384;BME280;61466;52.166;5.004;2023-01-25T04:56:00;103716.16;;;4.13;61.65
71384;BME280;61466;52.166;5.004;2023-01-25T04:58:26;103716.66;;;4.17;61.57
71384;BME280;61466;52.166;5.004;2023-01-25T05:00:51;103716.66;;;4.17;61.35
71384;BME280;61466;52.166;5.004;2023-01-25T05:03:16;103713.03;;;4.18;61.66
71384;BME280;61466;52.166;5.004;2023-01-25T05:05:46;103712.38;;;4.16;61.69
71384;BME280;61466;52.166;5.004;2023-01-25T05:08:12;103711.53;;;4.15;61.61
71384;BME280;61466;52.166;5.004;2023-01-25T05:10:37;103704.69;;;4.13;61.57
71384;BME280;61466;52.166;5.004;2023-01-25T05:13:02;103707.88;;;4.16;61.55
71384;BME280;61466;52.166;5.004;2023-01-25T05:15:28;103712.19;;;4.17;61.37
71384;BME280;61466;52.166;5.004;2023-01-25T05:17:53;103705.78;;;4.20;61.24
71384;BME280;61466;52.166;5.004;2023-01-25T05:20:18;103707.56;;;4.19;61.50
71384;BME280;61466;52.166;5.004;2023-01-25T05:22:44;103714.69;;;4.19;61.38
71384;BME280;61466;52.166;5.004;2023-01-25T05:25:09;103716.66;;;4.17;61.17
71384;BME280;61466;52.166;5.004;2023-01-25T05:27:54;103718.50;;;4.16;61.31
71384;BME280;61466;52.166;5.004;2023-01-25T05:30:20;103707.06;;;4.16;61.33
71384;BME280;61466;52.166;5.004;2023-01-25T05:32:47;103709.84;;;4.14;61.27
71384;BME280;61466;52.166;5.004;2023-01-25T05:35:13;103700.53;;;4.10;61.39
71384;BME280;61466;52.166;5.004;2023-01-25T05:37:39;103709.72;;;4.16;61.21
71384;BME280;61466;52.166;5.004;2023-01-25T05:40:05;103712.38;;;4.16;61.51
71384;BME280;61466;52.166;5.004;2023-01-25T05:42:30;103713.34;;;4.15;61.50
71384;BME280;61466;52.166;5.004;2023-01-25T05:44:56;103705.91;;;4.18;61.14
71384;BME280;61466;52.166;5.004;2023-01-25T05:47:21;103716.66;;;4.17;60.83
71384;BME280;61466;52.166;5.004;2023-01-25T05:49:47;103722.28;;;4.14;61.00
71384;BME280;61466;52.166;5.004;2023-01-25T05:52:14;103709.31;;;4.10;61.16
71384;BME280;61466;52.166;5.004;2023-01-25T05:54:40;103710.16;;;4.11;61.08
71384;BME280;61466;52.166;5.004;2023-01-25T05:57:05;103713.94;;;4.08;61.48
71384;BME280;61466;52.166;5.004;2023-01-25T05:59:31;103707.81;;;4.08;61.27
71384;BME280;61466;52.166;5.004;2023-01-25T06:01:56;103709.94;;;4.04;61.04
71384;BME280;61466;52.166;5.004;2023-01-25T06:04:21;103716.22;;;4.03;61.43
71384;BME280;61466;52.166;5.004;2023-01-25T06:06:47;103716.81;;;3.97;61.15
71384;BME280;61466;52.166;5.004;2023-01-25T06:09:13;103728.41;;;3.96;61.35
71384;BME280;61466;52.166;5.004;2023-01-25T06:11:38;103714.59;;;3.93;61.26
71384;BME280;61466;52.166;5.004;2023-01-25T06:14:04;103717.13;;;3.94;61.29
71384;BME280;61466;52.166;5.004;2023-01-25T06:16:29;103701.88;;;3.78;61.26
71384;BME280;61466;52.166;5.004;2023-01-25T06:18:55;103725.66;;;3.88;61.40
71384;BME280;61466;52.166;5.004;2023-01-25T06:21:20;103728.31;;;3.88;61.38
71384;BME280;61466;52.166;5.004;2023-01-25T06:23:45;103729.94;;;3.89;61.12
71384;BME280;61466;52.166;5.004;2023-01-25T06:26:12;103727.47;;;3.87;61.28
71384;BME280;61466;52.166;5.004;2023-01-25T06:28:39;103728.31;;;3.88;60.83
71384;BME280;61466;52.166;5.004;2023-01-25T06:31:10;103722.59;;;3.83;61.41
71384;BME280;61466;52.166;5.004;2023-01-25T06:33:37;103725.09;;;3.84;61.16
71384;BME280;61466;52.166;5.004;2023-01-25T06:36:08;103723.44;;;3.83;61.24
71384;BME280;61466;52.166;5.004;2023-01-25T06:38:35;103720.63;;;3.85;61.05
71384;BME280;61466;52.166;5.004;2023-01-25T06:41:01;103711.34;;;3.81;60.97
71384;BME280;61466;52.166;5.004;2023-01-25T06:43:28;103707.84;;;3.80;60.76
71384;BME280;61466;52.166;5.004;2023-01-25T06:45:57;103716.66;;;3.81;60.89
71384;BME280;61466;52.166;5.004;2023-01-25T06:48:22;103719.94;;;3.83;60.85
71384;BME280;61466;52.166;5.004;2023-01-25T06:50:53;103718.75;;;3.77;60.96
71384;BME280;61466;52.166;5.004;2023-01-25T06:53:18;103718.06;;;3.75;60.81
71384;BME280;61466;52.166;5.004;2023-01-25T06:55:44;103725.88;;;3.77;61.19
71384;BME280;61466;52.166;5.004;2023-01-25T06:58:09;103719.56;;;3.78;61.18
71384;BME280;61466;52.166;5.004;2023-01-25T07:00:34;103718.44;;;3.80;60.91
71384;BME280;61466;52.166;5.004;2023-01-25T07:02:59;103714.41;;;3.76;61.19
71384;BME280;61466;52.166;5.004;2023-01-25T07:05:25;103711.34;;;3.81;60.74
71384;BME280;61466;52.166;5.004;2023-01-25T07:07:50;103706.06;;;3.81;61.14
71384;BME280;61466;52.166;5.004;2023-01-25T07:10:15;103706.34;;;3.78;60.88
71384;BME280;61466;52.166;5.004;2023-01-25T07:12:41;103711.63;;;3.78;61.32
71384;BME280;61466;52.166;5.004;2023-01-25T07:15:07;103710.94;;;3.76;60.99
71384;BME280;61466;52.166;5.004;2023-01-25T07:17:32;103707.47;;;3.75;61.02
71384;BME280;61466;52.166;5.004;2023-01-25T07:19:57;103704.00;;;3.75;61.40
71384;BME280;61466;52.166;5.004;2023-01-25T07:22:23;103704.81;;;3.75;61.27
71384;BME280;61466;52.166;5.004;2023-01-25T07:24:49;103706.66;;;3.75;61.12
71384;BME280;61466;52.166;5.004;2023-01-25T07:27:16;103707.59;;;3.74;61.23
71384;BME280;61466;52.166;5.004;2023-01-25T07:29:42;103697.16;;;3.72;61.06
71384;BME280;61466;52.166;5.004;2023-01-25T07:32:08;103701.34;;;3.75;61.37
71384;BME280;61466;52.166;5.004;2023-01-25T07:34:35;103690.75;;;3.75;61.20
71384;BME280;61466;52.166;5.004;2023-01-25T07:37:01;103692.28;;;3.77;61.01
71384;BME280;61466;52.166;5.004;2023-01-25T07:39:26;103691.44;;;3.77;61.06
71384;BME280;61466;52.166;5.004;2023-01-25T07:41:51;103692.94;;;3.79;61.21
71384;BME280;61466;52.166;5.004;2023-01-25T07:44:17;103688.63;;;3.78;61.29
71384;BME280;61466;52.166;5.004;2023-01-25T07:46:42;103684.00;;;3.80;61.14
71384;BME280;61466;52.166;5.004;2023-01-25T07:49:07;103681.22;;;3.82;61.22
71384;BME280;61466;52.166;5.004;2023-01-25T07:51:33;103688.47;;;3.80;61.45
71384;BME280;61466;52.166;5.004;2023-01-25T07:54:01;103690.16;;;3.81;61.24
71384;BME280;61466;52.166;5.004;2023-01-25T07:56:35;103677.22;;;3.78;61.36
71384;BME280;61466;52.166;5.004;2023-01-25T07:59:04;103668.28;;;3.79;61.12
71384;BME280;61466;52.166;5.004;2023-01-25T08:01:32;103661.31;;;3.78;61.40
71384;BME280;61466;52.166;5.004;2023-01-25T08:03:59;103666.63;;;3.78;61.33
71384;BME280;61466;52.166;5.004;2023-01-25T08:06:27;103651.88;;;3.75;61.27
71384;BME280;61466;52.166;5.004;2023-01-25T08:08:56;103658.81;;;3.76;61.52
71384;BME280;61466;52.166;5.004;2023-01-25T08:11:25;103659.50;;;3.78;61.05
71384;BME280;61466;52.166;5.004;2023-01-25T08:13:50;103659.22;;;3.81;61.38
71384;BME280;61466;52.166;5.004;2023-01-25T08:16:18;103658.38;;;3.81;61.54
71384;BME280;61466;52.166;5.004;2023-01-25T08:18:54;103658.53;;;3.79;61.62
71384;BME280;61466;52.166;5.004;2023-01-25T08:21:21;103667.31;;;3.80;61.43
71384;BME280;61466;52.166;5.004;2023-01-25T08:23:53;103665.47;;;3.80;61.28
71384;BME280;61466;52.166;5.004;2023-01-25T08:26:18;103667.97;;;3.82;61.21
71384;BME280;61466;52.166;5.004;2023-01-25T08:28:45;103677.59;;;3.83;61.20
71384;BME280;61466;52.166;5.004;2023-01-25T08:31:15;103676.63;;;3.84;61.14
71384;BME280;61466;52.166;5.004;2023-01-25T08:33:42;103678.44;;;3.83;61.23
71384;BME280;61466;52.166;5.004;2023-01-25T08:36:10;103676.47;;;3.85;61.36
71384;BME280;61466;52.166;5.004;2023-01-25T08:38:36;103669.81;;;3.81;61.29
71384;BME280;61466;52.166;5.004;2023-01-25T08:43:31;103660.09;;;3.72;61.32
71384;BME280;61466;52.166;5.004;2023-01-25T08:45:57;103663.28;;;3.76;61.19
71384;BME280;61466;52.166;5.004;2023-01-25T08:48:22;103647.03;;;3.71;61.38
71384;BME280;61466;52.166;5.004;2023-01-25T08:50:49;103645.75;;;3.75;61.61
71384;BME280;61466;52.166;5.004;2023-01-25T08:53:14;103645.75;;;3.75;61.59
71384;BME280;61466;52.166;5.004;2023-01-25T08:55:40;103641.13;;;3.77;61.48
71384;BME280;61466;52.166;5.004;2023-01-25T08:58:09;103637.50;;;3.78;61.46
71384;BME280;61466;52.166;5.004;2023-01-25T09:00:39;103636.81;;;3.76;61.69
71384;BME280;61466;52.166;5.004;2023-01-25T09:03:06;103640.13;;;3.78;61.21
71384;BME280;61466;52.166;5.004;2023-01-25T09:05:36;103634.16;;;3.76;61.46
71384;BME280;61466;52.166;5.004;2023-01-25T09:08:03;103646.13;;;3.80;61.63
71384;BME280;61466;52.166;5.004;2023-01-25T09:10:29;103627.59;;;3.80;61.66
71384;BME280;61466;52.166;5.004;2023-01-25T09:12:55;103637.22;;;3.81;61.16
71384;BME280;61466;52.166;5.004;2023-01-25T09:15:20;103643.84;;;3.85;61.25
71384;BME280;61466;52.166;5.004;2023-01-25T09:17:55;103638.53;;;3.85;61.06
71384;BME280;61466;52.166;5.004;2023-01-25T09:20:21;103639.09;;;3.88;61.15
71384;BME280;61466;52.166;5.004;2023-01-25T09:22:46;103631.28;;;3.87;61.22
71384;BME280;61466;52.166;5.004;2023-01-25T09:25:12;103633.78;;;3.88;61.48
71384;BME280;61466;52.166;5.004;2023-01-25T09:27:38;103630.31;;;3.88;61.58
71384;BME280;61466;52.166;5.004;2023-01-25T09:30:05;103634.47;;;3.90;61.32
71384;BME280;61466;52.166;5.004;2023-01-25T09:32:31;103632.97;;;3.88;61.24
71384;BME280;61466;52.166;5.004;2023-01-25T09:34:56;103634.31;;;3.92;61.43
71384;BME280;61466;52.166;5.004;2023-01-25T09:37:21;103633.31;;;3.93;61.28
71384;BME280;61466;52.166;5.004;2023-01-25T09:39:47;103620.25;;;3.92;61.40
71384;BME280;61466;52.166;5.004;2023-01-25T09:42:25;103621.22;;;3.90;61.36
71384;BME280;61466;52.166;5.004;2023-01-25T09:45:20;103617.06;;;3.88;61.39
71384;BME280;61466;52.166;5.004;2023-01-25T09:53:18;103601.41;;;3.95;61.35
71384;BME280;61466;52.166;5.004;2023-01-25T09:55:52;103615.47;;;3.95;61.23
71384;BME280;61466;52.166;5.004;2023-01-25T09:58:23;103607.53;;;3.95;61.29
71384;BME280;61466;52.166;5.004;2023-01-25T10:00:58;103608.34;;;3.96;61.11
71384;BME280;61466;52.166;5.004;2023-01-25T10:06:02;103589.38;;;4.00;60.80
71384;BME280;61466;52.166;5.004;2023-01-25T10:08:35;103582.94;;;4.03;61.00
71384;BME280;61466;52.166;5.004;2023-01-25T10:11:19;103578.13;;;4.06;61.17
71384;BME280;61466;52.166;5.004;2023-01-25T10:13:45;103572.84;;;4.06;61.04
71384;BME280;61466;52.166;5.004;2023-01-25T10:16:33;103567.34;;;4.00;61.13
71384;BME280;61466;52.166;5.004;2023-01-25T10:19:19;103566.91;;;4.04;60.96
71384;BME280;61466;52.166;5.004;2023-01-25T10:21:49;103568.88;;;4.02;61.10
71384;BME280;61466;52.166;5.004;2023-01-25T10:26:56;103561.59;;;4.04;60.76
71384;BME280;61466;52.166;5.004;2023-01-25T10:29:27;103556.75;;;4.00;60.90
71384;BME280;61466;52.166;5.004;2023-01-25T10:34:32;103564.53;;;4.01;61.06
71384;BME280;61466;52.166;5.004;2023-01-25T10:37:12;103564.19;;;3.96;60.94
71384;BME280;61466;52.166;5.004;2023-01-25T10:39:41;103558.72;;;3.98;61.09
71384;BME280;61466;52.166;5.004;2023-01-25T10:42:11;103550.31;;;4.02;61.14
71384;BME280;61466;52.166;5.004;2023-01-25T10:44:39;103543.66;;;3.98;61.19
71384;BME280;61466;52.166;5.004;2023-01-25T10:49:47;103537.50;;;3.98;60.78
71384;BME280;61466;52.166;5.004;2023-01-25T10:54:47;103534.72;;;3.99;60.65
71384;BME280;61466;52.166;5.004;2023-01-25T10:57:20;103526.78;;;3.99;60.70
71384;BME280;61466;52.166;5.004;2023-01-25T10:59:49;103524.94;;;4.00;60.73
71384;BME280;61466;52.166;5.004;2023-01-25T11:02:43;103515.50;;;3.97;60.54
71384;BME280;61466;52.166;5.004;2023-01-25T11:07:57;103503.47;;;4.03;60.76
71384;BME280;61466;52.166;5.004;2023-01-25T11:10:26;103497.03;;;4.05;60.54
71384;BME280;61466;52.166;5.004;2023-01-25T11:15:53;103487.78;;;4.09;60.47
71384;BME280;61466;52.166;5.004;2023-01-25T11:20:45;103477.34;;;4.08;60.65
71384;BME280;61466;52.166;5.004;2023-01-25T11:23:23;103478.00;;;4.10;60.77
71384;BME280;61466;52.166;5.004;2023-01-25T11:25:50;103464.56;;;4.03;60.41
71384;BME280;61466;52.166;5.004;2023-01-25T11:28:16;103458.78;;;4.08;60.41
71384;BME280;61466;52.166;5.004;2023-01-25T11:30:43;103454.66;;;4.05;60.34
71384;BME280;61466;52.166;5.004;2023-01-25T11:33:11;103455.31;;;4.07;60.33
71384;BME280;61466;52.166;5.004;2023-01-25T11:35:54;103448.34;;;4.06;60.65
71384;BME280;61466;52.166;5.004;2023-01-25T11:38:23;103439.28;;;4.09;60.36
71384;BME280;61466;52.166;5.004;2023-01-25T11:49:12;103403.00;;;4.09;60.72
71384;BME280;61466;52.166;5.004;2023-01-25T11:54:41;103387.13;;;4.09;60.54
71384;BME280;61466;52.166;5.004;2023-01-25T12:00:25;103365.94;;;4.09;60.57
71384;BME280;61466;52.166;5.004;2023-01-25T12:06:06;103356.97;;;4.10;60.43
71384;BME280;61466;52.166;5.004;2023-01-25T12:11:54;103344.75;;;4.09;60.38
71384;BME280;61466;52.166;5.004;2023-01-25T12:17:35;103328.84;;;4.09;60.47
71384;BME280;61466;52.166;5.004;2023-01-25T12:22:49;103324.22;;;4.12;60.57
71384;BME280;61466;52.166;5.004;2023-01-25T12:25:35;103321.56;;;4.12;60.68
71384;BME280;61466;52.166;5.004;2023-01-25T12:30:55;103310.34;;;4.18;60.39
71384;BME280;61466;52.166;5.004;2023-01-25T12:33:27;103295.94;;;4.20;60.51
71384;BME280;61466;52.166;5.004;2023-01-25T12:36:05;103286.97;;;4.21;60.39
71384;BME280;61466;52.166;5.004;2023-01-25T12:38:57;103279.88;;;4.22;60.34
71384;BME280;61466;52.166;5.004;2023-01-25T12:44:17;103276.06;;;4.24;60.33
71384;BME280;61466;52.166;5.004;2023-01-25T12:46:54;103267.97;;;4.26;59.81
71384;BME280;61466;52.166;5.004;2023-01-25T12:49:40;103258.69;;;4.22;60.07
71384;BME280;61466;52.166;5.004;2023-01-25T12:52:20;103251.41;;;4.24;60.22
71384;BME280;61466;52.166;5.004;2023-01-25T12:54:48;103255.03;;;4.23;59.87
71384;BME280;61466;52.166;5.004;2023-01-25T12:57:31;103259.34;;;4.24;59.76
71384;BME280;61466;52.166;5.004;2023-01-25T13:02:59;103248.56;;;4.25;59.77
71384;BME280;61466;52.166;5.004;2023-01-25T13:13:50;103230.84;;;4.18;60.01
71384;BME280;61466;52.166;5.004;2023-01-25T13:16:35;103229.19;;;4.17;60.26
71384;BME280;61466;52.166;5.004;2023-01-25T13:19:02;103243.44;;;4.16;59.99
71384;BME280;61466;52.166;5.004;2023-01-25T13:21:41;103243.44;;;4.16;60.10
71384;BME280;61466;52.166;5.004;2023-01-25T13:24:28;103230.84;;;4.09;59.89
71384;BME280;61466;52.166;5.004;2023-01-25T13:32:00;103213.59;;;3.97;60.41
71384;BME280;61466;52.166;5.004;2023-01-25T13:37:04;103214.75;;;4.03;60.59
71384;BME280;61466;52.166;5.004;2023-01-25T13:39:46;103213.75;;;4.04;60.39
71384;BME280;61466;52.166;5.004;2023-01-25T13:42:23;103208.31;;;4.05;60.50
71384;BME280;61466;52.166;5.004;2023-01-25T13:44:52;103203.16;;;4.04;60.52
71384;BME280;61466;52.166;5.004;2023-01-25T13:47:21;103203.50;;;4.01;60.39
71384;BME280;61466;52.166;5.004;2023-01-25T13:52:25;103195.22;;;4.04;60.44
71384;BME280;61466;52.166;5.004;2023-01-25T13:54:54;103192.25;;;3.99;60.28
71384;BME280;61466;52.166;5.004;2023-01-25T13:57:26;103195.41;;;4.02;60.25
71384;BME280;61466;52.166;5.004;2023-01-25T14:00:12;103195.41;;;4.02;60.30
71384;BME280;61466;52.166;5.004;2023-01-25T14:02:39;103184.44;;;3.97;60.68
71384;BME280;61466;52.166;5.004;2023-01-25T14:05:16;103180.31;;;3.95;61.17
71384;BME280;61466;52.166;5.004;2023-01-25T14:07:45;103167.59;;;3.98;60.61
71384;BME280;61466;52.166;5.004;2023-01-25T14:10:17;103166.94;;;4.04;60.84
71384;BME280;61466;52.166;5.004;2023-01-25T14:12:43;103159.81;;;4.05;60.72
71384;BME280;61466;52.166;5.004;2023-01-25T14:15:37;103165.94;;;4.05;60.62
71384;BME280;61466;52.166;5.004;2023-01-25T14:18:13;103171.72;;;4.09;60.78
71384;BME280;61466;52.166;5.004;2023-01-25T14:20:41;103168.06;;;4.10;60.55
71384;BME280;61466;52.166;5.004;2023-01-25T14:23:27;103163.28;;;4.05;60.78
71384;BME280;61466;52.166;5.004;2023-01-25T14:25:54;103164.09;;;4.06;60.45
71384;BME280;61466;52.166;5.004;2023-01-25T14:28:22;103174.69;;;4.06;60.21
71384;BME280;61466;52.166;5.004;2023-01-25T14:30:53;103174.69;;;4.06;60.46
71384;BME280;61466;52.166;5.004;2023-01-25T14:33:23;103167.41;;;4.00;60.20
71384;BME280;61466;52.166;5.004;2023-01-25T14:35:50;103167.59;;;3.98;60.69
71384;BME280;61466;52.166;5.004;2023-01-25T14:40:58;103171.03;;;3.90;60.45